sensor_id;sensor_type;location;lat;lon;timestamp;pressure;altitude;pressure_sealevel;temperature;humidity
48848;BME280;36611;51.638;5.784;2022-09-09T00:02:20;100668.81;;;19.64;56.25
48848;BME280;36611;51.638;5.784;2022-09-09T00:07:55;100662.34;;;19.57;56.39
48848;BME280;36611;51.638;5.784;2022-09-09T00:10:40;100658.09;;;19.54;56.59
48848;BME280;36611;51.638;5.784;2022-09-09T00:13:42;100654.69;;;19.52;56.55
48848;BME280;36611;51.638;5.784;2022-09-09T00:16:19;100656.72;;;19.50;56.46
48848;BME280;36611;51.638;5.784;2022-09-09T00:21:39;100654.16;;;19.41;56.73
48848;BME280;36611;51.638;5.784;2022-09-09T00:24:22;100644.28;;;19.40;56.50
48848;BME280;36611;51.638;5.784;2022-09-09T00:27:04;100643.09;;;19.34;56.52
48848;BME280;36611;51.638;5.784;2022-09-09T00:29:45;100643.94;;;19.26;56.84
48848;BME280;36611;51.638;5.784;2022-09-09T00:32:16;100644.25;;;19.23;56.65
48848;BME280;36611;51.638;5.784;2022-09-09T00:35:29;100641.88;;;19.20;57.00
48848;BME280;36611;51.638;5.784;2022-09-09T00:38:00;100643.06;;;19.18;56.95
48848;BME280;36611;51.638;5.784;2022-09-09T00:40:34;100649.88;;;19.14;56.69
48848;BME280;36611;51.638;5.784;2022-09-09T00:43:15;100642.03;;;19.11;56.78
48848;BME280;36611;51.638;5.784;2022-09-09T00:54:12;100639.31;;;19.11;57.34
48848;BME280;36611;51.638;5.784;2022-09-09T00:59:48;100634.91;;;19.10;57.10
48848;BME280;36611;51.638;5.784;2022-09-09T01:04:55;100633.72;;;19.12;57.42
48848;BME280;36611;51.638;5.784;2022-09-09T01:07:27;100630.66;;;19.07;57.42
48848;BME280;36611;51.638;5.784;2022-09-09T01:09:58;100628.25;;;19.04;57.40
48848;BME280;36611;51.638;5.784;2022-09-09T01:12:42;100628.44;;;19.02;57.40
48848;BME280;36611;51.638;5.784;2022-09-09T01:15:20;100623.16;;;19.01;57.33
48848;BME280;36611;51.638;5.784;2022-09-09T01:17:58;100626.38;;;18.96;57.56
48848;BME280;36611;51.638;5.784;2022-09-09T01:28:47;100619.22;;;18.79;57.55
48848;BME280;36611;51.638;5.784;2022-09-09T01:31:22;100621.94;;;18.79;57.84
48848;BME280;36611;51.638;5.784;2022-09-09T01:33:52;100634.53;;;18.80;57.43
48848;BME280;36611;51.638;5.784;2022-09-09T01:36:38;100623.47;;;18.82;58.06
48848;BME280;36611;51.638;5.784;2022-09-09T01:39:07;100625.69;;;18.86;57.52
48848;BME280;36611;51.638;5.784;2022-09-09T01:41:35;100627.22;;;18.89;58.04
48848;BME280;36611;51.638;5.784;2022-09-09T01:44:06;100627.91;;;18.91;57.90
48848;BME280;36611;51.638;5.784;2022-09-09T01:46:35;100620.44;;;18.93;57.78
48848;BME280;36611;51.638;5.784;2022-09-09T01:49:05;100622.13;;;18.94;57.96
48848;BME280;36611;51.638;5.784;2022-09-09T01:51:34;100619.91;;;18.89;57.49
48848;BME280;36611;51.638;5.784;2022-09-09T01:54:10;100618.56;;;18.85;57.93
48848;BME280;36611;51.638;5.784;2022-09-09T02:00:01;100614.63;;;18.80;58.16
48848;BME280;36611;51.638;5.784;2022-09-09T02:06:04;100610.03;;;18.72;57.89
48848;BME280;36611;51.638;5.784;2022-09-09T02:08:43;100609.69;;;18.75;58.16
48848;BME280;36611;51.638;5.784;2022-09-09T02:11:14;100607.66;;;18.77;58.22
48848;BME280;36611;51.638;5.784;2022-09-09T02:13:51;100612.25;;;18.77;57.98
48848;BME280;36611;51.638;5.784;2022-09-09T02:16:26;100601.19;;;18.78;58.38
48848;BME280;36611;51.638;5.784;2022-09-09T02:19:00;100600.19;;;18.79;58.43
48848;BME280;36611;51.638;5.784;2022-09-09T02:21:42;100598.47;;;18.78;58.29
48848;BME280;36611;51.638;5.784;2022-09-09T02:24:12;100595.25;;;18.75;58.32
48848;BME280;36611;51.638;5.784;2022-09-09T02:26:49;100600.16;;;18.71;58.33
48848;BME280;36611;51.638;5.784;2022-09-09T02:29:33;100594.22;;;18.67;58.55
48848;BME280;36611;51.638;5.784;2022-09-09T02:32:06;100597.78;;;18.68;58.17
48848;BME280;36611;51.638;5.784;2022-09-09T02:34:41;100600.50;;;18.68;58.34
48848;BME280;36611;51.638;5.784;2022-09-09T02:37:10;100590.97;;;18.64;58.66
48848;BME280;36611;51.638;5.784;2022-09-09T02:39:41;100584.00;;;18.61;58.49
48848;BME280;36611;51.638;5.784;2022-09-09T02:42:11;100586.84;;;18.60;58.59
48848;BME280;36611;51.638;5.784;2022-09-09T02:44:42;100592.28;;;18.60;58.40
48848;BME280;36611;51.638;5.784;2022-09-09T02:47:25;100592.47;;;18.58;59.02
48848;BME280;36611;51.638;5.784;2022-09-09T02:56:16;100603.91;;;18.70;59.19
48848;BME280;36611;51.638;5.784;2022-09-09T02:58:46;100600.84;;;18.73;58.87
48848;BME280;36611;51.638;5.784;2022-09-09T03:01:12;100595.41;;;18.73;59.23
48848;BME280;36611;51.638;5.784;2022-09-09T03:03:44;100600.69;;;18.75;58.86
48848;BME280;36611;51.638;5.784;2022-09-09T03:06:14;100603.56;;;18.73;58.96
48848;BME280;36611;51.638;5.784;2022-09-09T03:08:46;100596.75;;;18.69;58.96
48848;BME280;36611;51.638;5.784;2022-09-09T03:11:17;100605.78;;;18.69;58.91
48848;BME280;36611;51.638;5.784;2022-09-09T03:13:48;100610.03;;;18.72;59.16
48848;BME280;36611;51.638;5.784;2022-09-09T03:16:16;100601.03;;;18.71;59.17
48848;BME280;36611;51.638;5.784;2022-09-09T03:18:46;100596.75;;;18.69;59.20
48848;BME280;36611;51.638;5.784;2022-09-09T03:21:13;100598.97;;;18.65;59.28
48848;BME280;36611;51.638;5.784;2022-09-09T03:23:42;100610.00;;;18.64;59.48
48848;BME280;36611;51.638;5.784;2022-09-09T03:26:09;100601.53;;;18.67;59.51
48848;BME280;36611;51.638;5.784;2022-09-09T03:28:42;100600.66;;;18.66;59.20
48848;BME280;36611;51.638;5.784;2022-09-09T03:31:10;100605.25;;;18.66;59.35
48848;BME280;36611;51.638;5.784;2022-09-09T03:33:42;100605.25;;;18.66;59.43
48848;BME280;36611;51.638;5.784;2022-09-09T03:36:12;100599.66;;;18.67;59.75
48848;BME280;36611;51.638;5.784;2022-09-09T03:38:38;100606.63;;;18.70;59.80
48848;BME280;36611;51.638;5.784;2022-09-09T03:41:07;100610.19;;;18.70;59.57
48848;BME280;36611;51.638;5.784;2022-09-09T03:43:37;100606.78;;;18.68;59.92
48848;BME280;36611;51.638;5.784;2022-09-09T03:46:04;100613.78;;;18.71;60.01
48848;BME280;36611;51.638;5.784;2022-09-09T03:48:30;100611.72;;;18.73;60.08
48848;BME280;36611;51.638;5.784;2022-09-09T03:50:58;100616.66;;;18.78;60.14
48848;BME280;36611;51.638;5.784;2022-09-09T03:53:31;100614.63;;;18.80;60.25
48848;BME280;36611;51.638;5.784;2022-09-09T03:55:58;100606.31;;;18.81;60.18
48848;BME280;36611;51.638;5.784;2022-09-09T03:58:27;100606.81;;;18.85;59.84
48848;BME280;36611;51.638;5.784;2022-09-09T04:01:06;100603.06;;;18.86;60.07
48848;BME280;36611;51.638;5.784;2022-09-09T04:03:37;100604.59;;;18.88;59.99
48848;BME280;36611;51.638;5.784;2022-09-09T04:06:05;100600.19;;;18.87;60.00
48848;BME280;36611;51.638;5.784;2022-09-09T04:08:33;100609.03;;;18.89;60.08
48848;BME280;36611;51.638;5.784;2022-09-09T04:11:02;100607.16;;;18.90;60.36
48848;BME280;36611;51.638;5.784;2022-09-09T04:13:37;100608.88;;;18.91;60.40
48848;BME280;36611;51.638;5.784;2022-09-09T04:16:08;100602.91;;;18.95;60.50
48848;BME280;36611;51.638;5.784;2022-09-09T04:18:36;100599.84;;;18.98;60.21
48848;BME280;36611;51.638;5.784;2022-09-09T04:21:03;100595.09;;;19.00;60.61
48848;BME280;36611;51.638;5.784;2022-09-09T04:23:36;100597.81;;;19.00;60.29
48848;BME280;36611;51.638;5.784;2022-09-09T04:26:04;100589.31;;;19.03;60.36
48848;BME280;36611;51.638;5.784;2022-09-09T04:28:35;100587.44;;;19.04;60.83
48848;BME280;36611;51.638;5.784;2022-09-09T04:31:11;100587.28;;;19.05;60.68
48848;BME280;36611;51.638;5.784;2022-09-09T04:33:44;100586.75;;;19.10;60.68
48848;BME280;36611;51.638;5.784;2022-09-09T04:36:10;100574.34;;;19.16;60.28
48848;BME280;36611;51.638;5.784;2022-09-09T04:38:37;100581.47;;;19.17;60.38
48848;BME280;36611;51.638;5.784;2022-09-09T04:41:04;100575.19;;;19.16;60.63
48848;BME280;36611;51.638;5.784;2022-09-09T04:43:36;100582.16;;;19.19;60.79
48848;BME280;36611;51.638;5.784;2022-09-09T04:46:06;100582.00;;;19.20;60.57
48848;BME280;36611;51.638;5.784;2022-09-09T04:48:32;100578.06;;;19.23;60.74
48848;BME280;36611;51.638;5.784;2022-09-09T04:51:05;100578.56;;;19.26;60.76
48848;BME280;36611;51.638;5.784;2022-09-09T04:53:35;100576.72;;;19.27;60.38
48848;BME280;36611;51.638;5.784;2022-09-09T04:56:13;100576.03;;;19.25;60.86
48848;BME280;36611;51.638;5.784;2022-09-09T04:58:44;100576.38;;;19.22;60.64
48848;BME280;36611;51.638;5.784;2022-09-09T05:01:15;100570.06;;;19.21;60.67
48848;BME280;36611;51.638;5.784;2022-09-09T05:03:45;100567.53;;;19.20;60.97
48848;BME280;36611;51.638;5.784;2022-09-09T05:06:17;100571.94;;;19.21;61.11
48848;BME280;36611;51.638;5.784;2022-09-09T05:08:46;100567.34;;;19.21;60.78
48848;BME280;36611;51.638;5.784;2022-09-09T05:11:19;100576.88;;;19.25;60.79
48848;BME280;36611;51.638;5.784;2022-09-09T05:13:48;100573.97;;;19.27;61.14
48848;BME280;36611;51.638;5.784;2022-09-09T05:16:17;100579.25;;;19.28;60.65
48848;BME280;36611;51.638;5.784;2022-09-09T05:18:45;100574.50;;;19.30;60.64
48848;BME280;36611;51.638;5.784;2022-09-09T05:21:14;100577.75;;;19.34;61.07
48848;BME280;36611;51.638;5.784;2022-09-09T05:23:44;100577.75;;;19.34;61.00
48848;BME280;36611;51.638;5.784;2022-09-09T05:26:16;100569.41;;;19.35;60.78
48848;BME280;36611;51.638;5.784;2022-09-09T05:28:47;100565.50;;;19.38;60.71
48848;BME280;36611;51.638;5.784;2022-09-09T05:31:16;100568.38;;;19.36;61.12
48848;BME280;36611;51.638;5.784;2022-09-09T05:33:49;100565.50;;;19.38;61.00
48848;BME280;36611;51.638;5.784;2022-09-09T05:36:18;100568.38;;;19.36;60.79
48848;BME280;36611;51.638;5.784;2022-09-09T05:38:48;100568.56;;;19.35;61.00
48848;BME280;36611;51.638;5.784;2022-09-09T05:41:16;100567.53;;;19.36;61.06
48848;BME280;36611;51.638;5.784;2022-09-09T05:43:47;100567.72;;;19.34;60.82
48848;BME280;36611;51.638;5.784;2022-09-09T05:46:23;100565.84;;;19.35;60.98
48848;BME280;36611;51.638;5.784;2022-09-09T05:48:53;100567.53;;;19.36;61.08
48848;BME280;36611;51.638;5.784;2022-09-09T05:51:31;100569.25;;;19.37;61.11
48848;BME280;36611;51.638;5.784;2022-09-09T05:54:04;100570.09;;;19.38;60.99
48848;BME280;36611;51.638;5.784;2022-09-09T05:56:34;100566.34;;;19.39;61.29
48848;BME280;36611;51.638;5.784;2022-09-09T05:59:01;100570.75;;;19.40;61.30
48848;BME280;36611;51.638;5.784;2022-09-09T06:01:31;100569.56;;;19.42;61.30
48848;BME280;36611;51.638;5.784;2022-09-09T06:04:03;100580.28;;;19.44;61.18
48848;BME280;36611;51.638;5.784;2022-09-09T06:06:33;100570.41;;;19.43;61.23
48848;BME280;36611;51.638;5.784;2022-09-09T06:09:08;100574.66;;;19.45;60.86
48848;BME280;36611;51.638;5.784;2022-09-09T06:11:38;100583.88;;;19.44;61.26
48848;BME280;36611;51.638;5.784;2022-09-09T06:14:07;100584.53;;;19.46;61.11
48848;BME280;36611;51.638;5.784;2022-09-09T06:16:37;100584.53;;;19.46;60.96
48848;BME280;36611;51.638;5.784;2022-09-09T06:19:09;100588.78;;;19.49;61.31
48848;BME280;36611;51.638;5.784;2022-09-09T06:21:37;100582.84;;;19.53;60.85
48848;BME280;36611;51.638;5.784;2022-09-09T06:24:08;100581.47;;;19.57;61.15
48848;BME280;36611;51.638;5.784;2022-09-09T06:26:38;100591.34;;;19.58;61.28
48848;BME280;36611;51.638;5.784;2022-09-09T06:29:09;100582.00;;;19.61;61.32
48848;BME280;36611;51.638;5.784;2022-09-09T06:31:37;100585.56;;;19.61;61.55
48848;BME280;36611;51.638;5.784;2022-09-09T06:34:28;100587.09;;;19.64;61.60
48848;BME280;36611;51.638;5.784;2022-09-09T06:36:57;100576.69;;;19.67;61.47
48848;BME280;36611;51.638;5.784;2022-09-09T06:39:28;100583.66;;;19.70;61.67
48848;BME280;36611;51.638;5.784;2022-09-09T06:41:55;100574.13;;;19.74;61.62
48848;BME280;36611;51.638;5.784;2022-09-09T06:44:55;100581.41;;;19.82;61.65
48848;BME280;36611;51.638;5.784;2022-09-09T06:47:48;100580.88;;;19.86;61.47
48848;BME280;36611;51.638;5.784;2022-09-09T06:50:15;100581.22;;;19.91;61.87
48848;BME280;36611;51.638;5.784;2022-09-09T06:52:46;100578.28;;;20.01;61.86
48848;BME280;36611;51.638;5.784;2022-09-09T06:55:14;100583.72;;;20.09;61.60
48848;BME280;36611;51.638;5.784;2022-09-09T06:57:42;100583.03;;;20.15;61.85
48848;BME280;36611;51.638;5.784;2022-09-09T07:00:17;100577.03;;;20.20;61.53
48848;BME280;36611;51.638;5.784;2022-09-09T07:02:44;100577.53;;;20.23;61.54
48848;BME280;36611;51.638;5.784;2022-09-09T07:05:12;100580.38;;;20.30;61.29
48848;BME280;36611;51.638;5.784;2022-09-09T07:07:40;100574.88;;;20.38;61.60
48848;BME280;36611;51.638;5.784;2022-09-09T07:10:09;100573.84;;;20.47;61.57
48848;BME280;36611;51.638;5.784;2022-09-09T07:12:36;100582.16;;;20.54;61.17
48848;BME280;36611;51.638;5.784;2022-09-09T07:15:05;100570.88;;;20.57;60.94
48848;BME280;36611;51.638;5.784;2022-09-09T07:17:32;100573.25;;;20.60;60.90
48848;BME280;36611;51.638;5.784;2022-09-09T07:20:11;100579.50;;;20.69;61.05
48848;BME280;36611;51.638;5.784;2022-09-09T07:22:39;100568.34;;;20.78;61.08
48848;BME280;36611;51.638;5.784;2022-09-09T07:25:07;100574.75;;;20.93;60.98
48848;BME280;36611;51.638;5.784;2022-09-09T07:27:35;100567.09;;;21.12;61.02
48848;BME280;36611;51.638;5.784;2022-09-09T07:30:04;100577.22;;;21.26;60.55
48848;BME280;36611;51.638;5.784;2022-09-09T07:32:32;100578.84;;;21.35;60.23
48848;BME280;36611;51.638;5.784;2022-09-09T07:34:59;100573.50;;;21.42;59.93
48848;BME280;36611;51.638;5.784;2022-09-09T07:37:27;100582.34;;;21.44;60.00
48848;BME280;36611;51.638;5.784;2022-09-09T07:39:53;100583.47;;;21.49;59.67
48848;BME280;36611;51.638;5.784;2022-09-09T07:42:20;100576.78;;;21.52;59.45
48848;BME280;36611;51.638;5.784;2022-09-09T07:44:47;100572.50;;;21.58;59.69
48848;BME280;36611;51.638;5.784;2022-09-09T07:47:15;100578.16;;;21.71;59.55
48848;BME280;36611;51.638;5.784;2022-09-09T07:49:44;100573.72;;;21.84;59.36
48848;BME280;36611;51.638;5.784;2022-09-09T07:52:15;100578.66;;;22.04;59.38
48848;BME280;36611;51.638;5.784;2022-09-09T07:54:48;100577.22;;;22.23;58.86
48848;BME280;36611;51.638;5.784;2022-09-09T07:57:14;100575.72;;;22.35;58.77
48848;BME280;36611;51.638;5.784;2022-09-09T07:59:45;100579.66;;;22.47;58.19
48848;BME280;36611;51.638;5.784;2022-09-09T08:02:12;100582.34;;;22.62;57.99
48848;BME280;36611;51.638;5.784;2022-09-09T08:04:41;100582.69;;;22.73;58.01
48848;BME280;36611;51.638;5.784;2022-09-09T08:07:07;100591.66;;;22.82;57.48
48848;BME280;36611;51.638;5.784;2022-09-09T08:09:41;100592.84;;;22.79;56.98
48848;BME280;36611;51.638;5.784;2022-09-09T08:12:21;100586.25;;;22.74;56.74
48848;BME280;36611;51.638;5.784;2022-09-09T08:14:50;100594.00;;;22.70;56.63
48848;BME280;36611;51.638;5.784;2022-09-09T08:17:18;100588.28;;;22.65;56.55
48848;BME280;36611;51.638;5.784;2022-09-09T08:19:45;100592.44;;;22.61;56.37
48848;BME280;36611;51.638;5.784;2022-09-09T08:22:17;100594.91;;;22.56;55.92
48848;BME280;36611;51.638;5.784;2022-09-09T08:24:43;100600.13;;;22.51;56.38
48848;BME280;36611;51.638;5.784;2022-09-09T08:27:11;100599.28;;;22.50;56.21
48848;BME280;36611;51.638;5.784;2022-09-09T08:29:38;100602.84;;;22.51;56.54
48848;BME280;36611;51.638;5.784;2022-09-09T08:32:06;100604.53;;;22.52;56.03
48848;BME280;36611;51.638;5.784;2022-09-09T08:34:34;100599.66;;;22.47;55.86
48848;BME280;36611;51.638;5.784;2022-09-09T08:37:05;100606.34;;;22.45;56.07
48848;BME280;36611;51.638;5.784;2022-09-09T08:39:36;100600.69;;;22.46;56.03
48848;BME280;36611;51.638;5.784;2022-09-09T08:42:22;100603.88;;;22.50;56.08
48848;BME280;36611;51.638;5.784;2022-09-09T08:45:19;100604.94;;;22.49;56.08
48848;BME280;36611;51.638;5.784;2022-09-09T08:48:01;100610.41;;;22.49;56.04
48848;BME280;36611;51.638;5.784;2022-09-09T08:50:38;100599.66;;;22.47;55.87
48848;BME280;36611;51.638;5.784;2022-09-09T08:53:34;100602.84;;;22.51;55.85
48848;BME280;36611;51.638;5.784;2022-09-09T08:56:10;100607.28;;;22.52;55.63
48848;BME280;36611;51.638;5.784;2022-09-09T08:58:55;100611.06;;;22.51;55.67
48848;BME280;36611;51.638;5.784;2022-09-09T09:07:42;100610.59;;;22.47;55.47
48848;BME280;36611;51.638;5.784;2022-09-09T09:18:52;100606.91;;;22.55;55.39
48848;BME280;36611;51.638;5.784;2022-09-09T09:24:05;100617.28;;;22.60;55.17
48848;BME280;36611;51.638;5.784;2022-09-09T09:26:37;100614.72;;;22.58;55.45
48848;BME280;36611;51.638;5.784;2022-09-09T09:29:15;100620.19;;;22.58;55.03
48848;BME280;36611;51.638;5.784;2022-09-09T09:31:55;100619.53;;;22.56;54.79
48848;BME280;36611;51.638;5.784;2022-09-09T09:34:25;100616.34;;;22.52;54.80
48848;BME280;36611;51.638;5.784;2022-09-09T09:36:57;100615.88;;;22.49;54.66
48848;BME280;36611;51.638;5.784;2022-09-09T09:39:30;100621.72;;;22.46;54.66
48848;BME280;36611;51.638;5.784;2022-09-09T09:42:17;100626.56;;;22.44;54.55
48848;BME280;36611;51.638;5.784;2022-09-09T09:44:51;100625.91;;;22.42;54.72
48848;BME280;36611;51.638;5.784;2022-09-09T09:47:22;100614.56;;;22.45;54.53
48848;BME280;36611;51.638;5.784;2022-09-09T09:50:17;100610.78;;;22.46;54.61
48848;BME280;36611;51.638;5.784;2022-09-09T09:52:54;100610.78;;;22.46;54.69
48848;BME280;36611;51.638;5.784;2022-09-09T09:55:23;100609.75;;;22.47;54.68
48848;BME280;36611;51.638;5.784;2022-09-09T09:57:50;100616.25;;;22.46;54.50
48848;BME280;36611;51.638;5.784;2022-09-09T10:00:21;100630.59;;;22.48;54.59
48848;BME280;36611;51.638;5.784;2022-09-09T10:02:56;100622.00;;;22.51;54.46
48848;BME280;36611;51.638;5.784;2022-09-09T10:05:30;100620.97;;;22.52;54.54
48848;BME280;36611;51.638;5.784;2022-09-09T10:08:15;100620.97;;;22.52;54.31
48848;BME280;36611;51.638;5.784;2022-09-09T10:14:21;100612.38;;;22.55;54.23
48848;BME280;36611;51.638;5.784;2022-09-09T10:16:55;100613.41;;;22.54;54.16
48848;BME280;36611;51.638;5.784;2022-09-09T10:19:34;100618.22;;;22.52;54.13
48848;BME280;36611;51.638;5.784;2022-09-09T10:28:10;100615.09;;;22.55;54.00
48848;BME280;36611;51.638;5.784;2022-09-09T10:30:55;100620.66;;;22.62;54.10
48848;BME280;36611;51.638;5.784;2022-09-09T10:36:44;100623.84;;;22.65;53.97
48848;BME280;36611;51.638;5.784;2022-09-09T10:39:28;100618.38;;;22.65;54.30
48848;BME280;36611;51.638;5.784;2022-09-09T10:42:06;100622.34;;;22.63;54.30
48848;BME280;36611;51.638;5.784;2022-09-09T10:44:39;100623.59;;;22.60;54.25
48848;BME280;36611;51.638;5.784;2022-09-09T10:55:17;100631.44;;;22.48;54.36
48848;BME280;36611;51.638;5.784;2022-09-09T10:57:52;100637.50;;;22.44;54.23
48848;BME280;36611;51.638;5.784;2022-09-09T11:00:22;100634.69;;;22.37;54.38
48848;BME280;36611;51.638;5.784;2022-09-09T11:02:59;100643.16;;;22.28;54.61
48848;BME280;36611;51.638;5.784;2022-09-09T11:08:17;100633.81;;;22.07;55.20
48848;BME280;36611;51.638;5.784;2022-09-09T11:16:17;100653.38;;;21.81;55.64
48848;BME280;36611;51.638;5.784;2022-09-09T11:18:47;100651.41;;;21.75;55.87
48848;BME280;36611;51.638;5.784;2022-09-09T11:21:28;100650.06;;;21.71;56.07
48848;BME280;36611;51.638;5.784;2022-09-09T11:24:10;100657.81;;;21.68;56.56
48848;BME280;36611;51.638;5.784;2022-09-09T11:26:46;100661.19;;;21.70;56.67
48848;BME280;36611;51.638;5.784;2022-09-09T11:29:41;100643.75;;;21.71;56.89
48848;BME280;36611;51.638;5.784;2022-09-09T11:38:27;100643.69;;;21.79;57.80
48848;BME280;36611;51.638;5.784;2022-09-09T11:41:02;100637.66;;;21.83;57.55
48848;BME280;36611;51.638;5.784;2022-09-09T11:43:41;100638.13;;;21.87;57.96
48848;BME280;36611;51.638;5.784;2022-09-09T11:46:09;100639.63;;;21.89;57.70
48848;BME280;36611;51.638;5.784;2022-09-09T11:48:42;100636.16;;;21.96;58.06
48848;BME280;36611;51.638;5.784;2022-09-09T11:54:01;100631.75;;;22.24;57.94
48848;BME280;36611;51.638;5.784;2022-09-09T11:56:31;100623.94;;;22.36;58.54
48848;BME280;36611;51.638;5.784;2022-09-09T11:59:03;100629.19;;;22.52;58.78
48848;BME280;36611;51.638;5.784;2022-09-09T12:01:41;100628.56;;;22.71;58.93
48848;BME280;36611;51.638;5.784;2022-09-09T12:04:27;100628.16;;;22.89;58.87
48848;BME280;36611;51.638;5.784;2022-09-09T12:07:24;100620.66;;;22.98;58.59
48848;BME280;36611;51.638;5.784;2022-09-09T12:10:00;100624.72;;;23.02;58.13
48848;BME280;36611;51.638;5.784;2022-09-09T12:12:32;100632.91;;;23.02;57.62
48848;BME280;36611;51.638;5.784;2022-09-09T12:15:16;100629.72;;;22.98;57.36
48848;BME280;36611;51.638;5.784;2022-09-09T12:17:45;100633.44;;;22.91;57.33
48848;BME280;36611;51.638;5.784;2022-09-09T12:20:36;100627.03;;;22.83;57.11
48848;BME280;36611;51.638;5.784;2022-09-09T12:31:06;100624.06;;;22.64;57.20
48848;BME280;36611;51.638;5.784;2022-09-09T12:33:39;100622.56;;;22.61;57.40
48848;BME280;36611;51.638;5.784;2022-09-09T12:36:17;100615.56;;;22.59;57.63
48848;BME280;36611;51.638;5.784;2022-09-09T12:38:46;100611.59;;;22.61;57.61
48848;BME280;36611;51.638;5.784;2022-09-09T12:41:24;100614.41;;;22.68;57.63
48848;BME280;36611;51.638;5.784;2022-09-09T12:44:05;100616.56;;;22.72;57.62
48848;BME280;36611;51.638;5.784;2022-09-09T12:46:41;100614.59;;;22.81;57.95
48848;BME280;36611;51.638;5.784;2022-09-09T12:51:54;100615.28;;;23.04;57.74
48848;BME280;36611;51.638;5.784;2022-09-09T12:54:24;100608.81;;;23.12;57.68
48848;BME280;36611;51.638;5.784;2022-09-09T12:56:51;100610.97;;;23.17;57.28
48848;BME280;36611;51.638;5.784;2022-09-09T12:59:27;100599.22;;;23.23;57.44
48848;BME280;36611;51.638;5.784;2022-09-09T13:02:01;100610.44;;;23.28;57.17
48848;BME280;36611;51.638;5.784;2022-09-09T13:04:31;100596.94;;;23.26;56.93
48848;BME280;36611;51.638;5.784;2022-09-09T13:07:07;100594.19;;;23.26;56.71
48848;BME280;36611;51.638;5.784;2022-09-09T13:09:36;100594.84;;;23.28;56.62
48848;BME280;36611;51.638;5.784;2022-09-09T13:12:04;100585.78;;;23.28;56.29
48848;BME280;36611;51.638;5.784;2022-09-09T13:14:36;100597.38;;;23.30;56.57
48848;BME280;36611;51.638;5.784;2022-09-09T13:17:06;100594.44;;;23.31;56.42
48848;BME280;36611;51.638;5.784;2022-09-09T13:19:44;100597.19;;;23.31;56.48
48848;BME280;36611;51.638;5.784;2022-09-09T13:22:13;100580.94;;;23.30;56.25
48848;BME280;36611;51.638;5.784;2022-09-09T13:24:40;100591.47;;;23.26;56.13
48848;BME280;36611;51.638;5.784;2022-09-09T13:27:25;100578.34;;;23.22;56.04
48848;BME280;36611;51.638;5.784;2022-09-09T13:29:53;100584.63;;;23.16;55.97
48848;BME280;36611;51.638;5.784;2022-09-09T13:32:25;100587.31;;;23.09;56.12
48848;BME280;36611;51.638;5.784;2022-09-09T13:35:00;100574.56;;;23.01;56.17
48848;BME280;36611;51.638;5.784;2022-09-09T13:37:47;100582.31;;;22.98;55.97
48848;BME280;36611;51.638;5.784;2022-09-09T13:40:20;100572.59;;;22.95;56.12
48848;BME280;36611;51.638;5.784;2022-09-09T13:42:52;100568.56;;;22.91;56.25
48848;BME280;36611;51.638;5.784;2022-09-09T13:45:26;100554.81;;;22.85;56.51
48848;BME280;36611;51.638;5.784;2022-09-09T13:47:53;100533.84;;;22.77;55.98
48848;BME280;36611;51.638;5.784;2022-09-09T13:50:25;100536.72;;;22.69;56.41
48848;BME280;36611;51.638;5.784;2022-09-09T13:52:54;100567.41;;;22.64;56.38
48848;BME280;36611;51.638;5.784;2022-09-09T13:55:23;100585.06;;;22.62;56.56
48848;BME280;36611;51.638;5.784;2022-09-09T14:00:24;100581.16;;;22.49;56.70
48848;BME280;36611;51.638;5.784;2022-09-09T14:02:50;100577.50;;;22.42;56.82
48848;BME280;36611;51.638;5.784;2022-09-09T14:05:22;100574.47;;;22.37;57.02
48848;BME280;36611;51.638;5.784;2022-09-09T14:07:49;100574.09;;;22.40;57.18
48848;BME280;36611;51.638;5.784;2022-09-09T14:10:18;100566.16;;;22.45;57.22
48848;BME280;36611;51.638;5.784;2022-09-09T14:12:45;100569.16;;;22.50;57.97
48848;BME280;36611;51.638;5.784;2022-09-09T14:15:13;100572.63;;;22.59;57.65
48848;BME280;36611;51.638;5.784;2022-09-09T14:17:40;100566.19;;;22.67;57.88
48848;BME280;36611;51.638;5.784;2022-09-09T14:20:08;100568.59;;;22.76;57.75
48848;BME280;36611;51.638;5.784;2022-09-09T14:22:36;100576.13;;;22.89;58.00
48848;BME280;36611;51.638;5.784;2022-09-09T14:25:07;100568.44;;;22.99;57.96
48848;BME280;36611;51.638;5.784;2022-09-09T14:27:34;100572.75;;;23.08;57.73
48848;BME280;36611;51.638;5.784;2022-09-09T14:30:00;100574.25;;;23.11;57.08
48848;BME280;36611;51.638;5.784;2022-09-09T14:32:27;100574.72;;;23.14;57.41
48848;BME280;36611;51.638;5.784;2022-09-09T14:34:59;100568.00;;;23.17;57.32
48848;BME280;36611;51.638;5.784;2022-09-09T14:37:27;100573.91;;;23.21;56.94
48848;BME280;36611;51.638;5.784;2022-09-09T14:39:53;100557.72;;;23.26;57.28
48848;BME280;36611;51.638;5.784;2022-09-09T14:42:20;100564.75;;;23.35;57.22
48848;BME280;36611;51.638;5.784;2022-09-09T14:44:50;100560.81;;;23.44;57.08
48848;BME280;36611;51.638;5.784;2022-09-09T14:47:17;100571.25;;;23.55;57.08
48848;BME280;36611;51.638;5.784;2022-09-09T14:49:43;100566.28;;;23.65;56.97
48848;BME280;36611;51.638;5.784;2022-09-09T14:52:12;100569.13;;;23.79;56.85
48848;BME280;36611;51.638;5.784;2022-09-09T14:54:43;100564.56;;;23.92;56.91
48848;BME280;36611;51.638;5.784;2022-09-09T14:57:10;100560.00;;;24.06;56.71
48848;BME280;36611;51.638;5.784;2022-09-09T14:59:36;100551.19;;;24.17;56.12
48848;BME280;36611;51.638;5.784;2022-09-09T15:02:02;100560.75;;;24.28;56.18
48848;BME280;36611;51.638;5.784;2022-09-09T15:04:33;100551.25;;;24.30;55.79
48848;BME280;36611;51.638;5.784;2022-09-09T15:07:00;100554.03;;;24.37;55.80
48848;BME280;36611;51.638;5.784;2022-09-09T15:09:26;100561.84;;;24.40;55.34